HBF weather

BBVA Bancomer Operating Center Helipad
Miguel Hidalgo, Distrito Federal, Mexico

Public forecast

Using degrees Celsius for public forecast. Weather courtesy of forecast.io.

METAR (pilot weather report)

Closest report is Licenciado Benito Juarez International Airport, 6.3 nm (11.7 km) E. Retrieved 2019/06/17 07:40 UTC (33 minutes ago):

MMMX 170740Z 11003KT 7SM SCT020 SCT200 18/13 A3028 NOSIG RMK 8/502 HZY AC

TAF (pilot weather forecast)

Closest forecast is Licenciado Benito Juarez International Airport, 6.3 nm (11.7 km) E. Retrieved 2019/06/17 06:20 UTC (2 hours ago):

TAF MMMX 170413Z 1706/1812 10009KT P6SM SCT020 SCT080 BKN200 TX27/1721Z TN16/1712Z FM171100 29004KT P6SM SCT080 BKN200 FM171800 13010KT P6SM SCT020 BKN080 BKN220 PROB40 1723/2803 5SM -TSRA BKN020CB FM180700 02005KT P6SM SCT025 SCT090 BKN220